Time;durP1;ratioP1;P1;durP2;ratioP2;P2;SDS_P1;SDS_P2;PMS_P1;PMS_P2;Temp;Humidity;BMP_temperature;BMP_pressure;BME280_temperature;BME280_humidity;BME280_pressure;Samples;Min_cycle;Max_cycle;Signal;HPM_P1;HPM_P2
2022/03/30 00:00:34;;;;;;;61.08;22.90;;;;;;;2.75;81.47;100840.31;5001211;28;20042;-63
2022/03/30 00:02:59;;;;;;;49.88;20.83;;;;;;;2.66;82.34;100830.97;5001497;28;20061;-63
2022/03/30 00:05:25;;;;;;;59.13;21.73;;;;;;;2.60;82.75;100828.47;5001562;28;20042;-65
2022/03/30 00:07:52;;;;;;;69.07;23.50;;;;;;;2.81;82.17;100821.69;5001667;28;20049;-65
2022/03/30 00:10:18;;;;;;;63.25;23.77;;;;;;;2.80;82.32;100819.97;5020882;28;20136;-65
2022/03/30 00:12:43;;;;;;;61.90;21.67;;;;;;;2.69;83.04;100822.09;5021294;28;20033;-65
2022/03/30 00:15:09;;;;;;;60.97;22.73;;;;;;;2.64;83.02;100818.72;5020840;28;20053;-64
2022/03/30 00:17:34;;;;;;;66.35;24.80;;;;;;;2.66;83.26;100817.78;4989818;28;20038;-64
2022/03/30 00:20:00;;;;;;;52.53;23.02;;;;;;;2.70;82.77;100824.66;5001725;28;20049;-64
2022/03/30 00:22:26;;;;;;;63.15;25.23;;;;;;;2.71;83.35;100823.78;5005470;28;20053;-65
2022/03/30 00:24:53;;;;;;;75.15;24.83;;;;;;;2.77;83.70;100810.41;5021539;28;20517;-65
2022/03/30 00:27:18;;;;;;;65.65;25.20;;;;;;;2.77;83.06;100815.69;5021547;28;20038;-63
2022/03/30 00:29:45;;;;;;;67.60;24.95;;;;;;;2.77;82.97;100815.69;5003672;28;20780;-64
2022/03/30 00:32:10;;;;;;;67.80;22.85;;;;;;;2.84;83.11;100814.56;4986663;28;20050;-65
2022/03/30 00:34:36;;;;;;;69.65;23.23;;;;;;;2.83;82.63;100820.75;5015645;28;20491;-64
2022/03/30 00:37:02;;;;;;;64.10;23.48;;;;;;;2.78;82.54;100814.75;5009573;28;20929;-64
2022/03/30 00:39:27;;;;;;;67.35;23.65;;;;;;;2.77;82.31;100812.19;5007662;28;20131;-64
2022/03/30 00:41:52;;;;;;;63.25;22.63;;;;;;;2.85;82.28;100805.75;5016471;28;20500;-64
2022/03/30 00:44:18;;;;;;;56.72;23.85;;;;;;;2.84;82.73;100811.91;5016820;28;20050;-64
2022/03/30 00:46:44;;;;;;;53.50;22.67;;;;;;;2.77;82.15;100807.78;4982083;28;20069;-64
2022/03/30 00:49:10;;;;;;;59.58;24.73;;;;;;;2.64;82.92;100814.31;4998903;28;20073;-65
2022/03/30 00:51:36;;;;;;;57.30;22.48;;;;;;;2.55;83.06;100815.47;4983511;28;20102;-64
2022/03/30 00:54:02;;;;;;;77.60;24.55;;;;;;;2.60;83.65;100803.03;5018523;28;20231;-64
2022/03/30 00:56:30;;;;;;;70.00;26.83;;;;;;;2.74;83.09;100802.59;5004733;28;20047;-64
2022/03/30 00:58:55;;;;;;;70.32;25.45;;;;;;;2.55;82.67;100809.34;5013126;28;20037;-64
2022/03/30 01:01:22;;;;;;;75.75;29.80;;;;;;;2.49;83.52;100810.41;5012975;28;20043;-64
2022/03/30 01:03:48;;;;;;;71.22;27.65;;;;;;;2.34;83.22;100805.59;5006236;28;20128;-64
2022/03/30 01:06:13;;;;;;;75.25;28.08;;;;;;;2.16;83.18;100795.63;5017699;28;20092;-64
2022/03/30 01:08:39;;;;;;;77.07;31.10;;;;;;;2.17;85.09;100794.72;4989834;28;20049;-64
2022/03/30 01:11:05;;;;;;;83.50;29.60;;;;;;;2.25;84.71;100796.19;4995141;28;20038;-64
2022/03/30 01:13:32;;;;;;;84.20;28.77;;;;;;;2.36;84.05;100789.75;5003226;28;20141;-64
2022/03/30 01:15:58;;;;;;;87.80;31.02;;;;;;;2.37;83.80;100792.38;5017218;28;20088;-65
2022/03/30 01:18:24;;;;;;;83.10;31.42;;;;;;;2.39;84.40;100784.41;4988560;28;20045;-64
2022/03/30 01:20:50;;;;;;;81.50;33.00;;;;;;;2.54;83.97;100778.69;5015393;28;20693;-64
2022/03/30 01:23:17;;;;;;;84.85;30.20;;;;;;;2.49;83.68;100772.69;4985429;28;20048;-64
2022/03/30 01:25:42;;;;;;;86.55;31.27;;;;;;;2.33;83.55;100770.53;5003469;28;20153;-65
2022/03/30 01:28:08;;;;;;;80.10;30.67;;;;;;;2.32;84.64;100771.44;5020999;28;20131;-66
2022/03/30 01:33:17;;;;;;;82.07;28.02;;;;;;;2.39;83.84;100755.47;5014389;28;20045;-65
2022/03/30 01:35:43;;;;;;;81.45;29.23;;;;;;;2.37;83.81;100760.78;5008845;28;20091;-65
2022/03/30 01:38:09;;;;;;;84.25;28.92;;;;;;;2.44;83.15;100758.81;5019934;28;20037;-65
2022/03/30 01:40:35;;;;;;;79.40;28.13;;;;;;;2.33;83.49;100760.00;5008853;28;20615;-67
2022/03/30 01:43:00;;;;;;;81.95;28.00;;;;;;;2.49;83.96;100751.63;5014500;28;20058;-64
2022/03/30 01:45:26;;;;;;;82.78;26.30;;;;;;;2.54;83.98;100752.34;4997273;28;20974;-65
2022/03/30 01:47:58;;;;;;;69.57;26.38;;;;;;;2.50;83.56;100756.00;5022717;28;20042;-65
2022/03/30 01:50:25;;;;;;;74.97;26.10;;;;;;;2.35;83.41;100752.06;4973169;28;20074;-64
2022/03/30 01:52:51;;;;;;;71.32;25.48;;;;;;;2.30;82.98;100746.94;4997807;28;20096;-65
2022/03/30 01:55:17;;;;;;;71.50;25.10;;;;;;;2.31;82.70;100747.84;5011551;28;20092;-64
2022/03/30 01:57:42;;;;;;;66.72;22.67;;;;;;;2.19;83.79;100746.41;4998686;28;20037;-64
2022/03/30 02:00:10;;;;;;;66.70;22.73;;;;;;;2.05;84.27;100743.34;5003962;28;20060;-64
2022/03/30 02:02:39;;;;;;;71.38;22.23;;;;;;;1.97;84.34;100738.31;4997187;28;20045;-64
2022/03/30 02:05:06;;;;;;;62.72;23.35;;;;;;;1.92;84.42;100734.97;5001120;28;20049;-63
2022/03/30 02:07:31;;;;;;;61.95;22.80;;;;;;;2.03;84.32;100729.38;5014286;28;20769;-63
2022/03/30 02:09:57;;;;;;;66.85;21.48;;;;;;;2.06;84.19;100727.53;5004922;28;20124;-63
2022/03/30 02:12:22;;;;;;;62.83;23.00;;;;;;;2.13;84.74;100732.59;5019832;28;20052;-63
2022/03/30 02:14:51;;;;;;;56.05;20.83;;;;;;;1.93;84.12;100726.16;5014393;28;20042;-63
2022/03/30 02:17:18;;;;;;;58.20;19.83;;;;;;;1.65;83.70;100728.72;4984334;28;20054;-64
2022/03/30 02:19:44;;;;;;;63.08;21.58;;;;;;;1.68;84.08;100726.03;5016676;28;20048;-64
2022/03/30 02:22:09;;;;;;;57.60;20.75;;;;;;;1.59;83.95;100726.28;5002451;28;20038;-63
2022/03/30 02:24:35;;;;;;;67.88;21.58;;;;;;;1.66;85.61;100725.22;5008111;28;20116;-64
2022/03/30 02:27:01;;;;;;;64.80;24.08;;;;;;;1.69;85.84;100717.22;5023522;28;20797;-63
2022/03/30 02:29:26;;;;;;;63.80;23.15;;;;;;;1.67;86.02;100723.44;5004966;28;20128;-63
2022/03/30 02:31:51;;;;;;;69.43;22.05;;;;;;;1.66;86.66;100717.34;4988749;28;20045;-63
2022/03/30 02:34:17;;;;;;;66.63;23.60;;;;;;;1.70;86.72;100713.69;5019617;28;20494;-63
2022/03/30 02:36:43;;;;;;;73.38;22.95;;;;;;;1.64;86.33;100708.63;5008666;28;20045;-63
2022/03/30 02:39:09;;;;;;;68.53;23.70;;;;;;;1.65;86.17;100712.94;5012095;28;20125;-63
2022/03/30 02:41:34;;;;;;;54.63;22.48;;;;;;;1.53;85.74;100708.91;5014666;28;20059;-63
2022/03/30 02:44:00;;;;;;;72.68;25.15;;;;;;;1.39;87.08;100705.81;5003129;28;20492;-63
2022/03/30 02:46:25;;;;;;;62.78;24.27;;;;;;;1.52;86.70;100698.47;5017012;28;20585;-63
2022/03/30 02:48:51;;;;;;;58.80;23.02;;;;;;;1.66;87.70;100696.31;4983506;28;20053;-63
2022/03/30 02:51:16;;;;;;;72.05;23.73;;;;;;;1.63;87.88;100692.91;4996552;28;20574;-65
2022/03/30 02:53:42;;;;;;;71.63;23.70;;;;;;;1.60;87.86;100698.22;5012493;28;20052;-63
2022/03/30 02:56:07;;;;;;;65.63;22.67;;;;;;;1.54;87.63;100694.88;5003580;28;20065;-63
2022/03/30 02:58:33;;;;;;;75.00;22.63;;;;;;;1.55;87.85;100690.47;4997808;28;20034;-65
2022/03/30 03:00:58;;;;;;;76.53;23.42;;;;;;;1.51;87.57;100694.97;4991283;28;20589;-63
2022/03/30 03:03:24;;;;;;;67.00;23.63;;;;;;;1.51;87.76;100694.97;4991006;28;20049;-63
2022/03/30 03:05:50;;;;;;;66.53;21.55;;;;;;;1.44;87.63;100689.94;5016186;28;20132;-63
2022/03/30 03:08:15;;;;;;;80.13;22.42;;;;;;;1.38;87.59;100683.09;5004089;28;20095;-63
2022/03/30 03:10:44;;;;;;;70.03;24.23;;;;;;;1.38;87.49;100679.59;4995994;28;20810;-63
2022/03/30 03:13:09;;;;;;;71.88;24.35;;;;;;;1.32;88.14;100679.78;5008009;28;20545;-63
2022/03/30 03:15:36;;;;;;;63.40;23.60;;;;;;;1.26;88.05;100679.03;5020804;28;20133;-63
2022/03/30 03:18:03;;;;;;;69.72;22.73;;;;;;;1.23;88.19;100671.25;4986322;28;20061;-63
2022/03/30 03:20:29;;;;;;;67.10;23.20;;;;;;;1.12;88.11;100673.31;4999237;28;20089;-63
2022/03/30 03:22:56;;;;;;;73.28;25.15;;;;;;;1.26;88.52;100672.94;5008218;28;20037;-63
2022/03/30 03:25:22;;;;;;;71.47;22.58;;;;;;;1.28;88.30;100664.09;5019922;28;20052;-63
2022/03/30 03:27:47;;;;;;;67.53;22.80;;;;;;;1.29;88.13;100665.81;4987885;28;20037;-63
2022/03/30 03:30:14;;;;;;;63.20;23.17;;;;;;;1.28;88.82;100661.47;5004544;28;20518;-65
2022/03/30 03:32:41;;;;;;;80.00;23.15;;;;;;;1.27;89.01;100658.91;5015582;28;20037;-63
2022/03/30 03:35:09;;;;;;;68.43;22.08;;;;;;;1.30;88.91;100650.91;5009798;28;20095;-64
2022/03/30 03:37:35;;;;;;;71.97;24.65;;;;;;;1.20;88.72;100652.94;5014179;28;20030;-63
2022/03/30 03:40:01;;;;;;;70.63;22.50;;;;;;;1.15;88.82;100651.34;5003832;28;20129;-63
2022/03/30 03:42:27;;;;;;;62.63;23.75;;;;;;;1.03;88.33;100655.16;5000766;28;20410;-66
2022/03/30 03:44:52;;;;;;;69.00;24.42;;;;;;;1.02;88.96;100650.84;5001444;28;20069;-63
2022/03/30 03:47:17;;;;;;;60.30;22.83;;;;;;;0.98;89.09;100652.66;5012492;28;20077;-65
2022/03/30 03:49:43;;;;;;;79.28;24.42;;;;;;;0.96;89.05;100653.63;4983135;28;20038;-63
2022/03/30 03:52:08;;;;;;;78.75;23.60;;;;;;;0.95;88.86;100657.13;5000114;28;20507;-63
2022/03/30 03:54:33;;;;;;;66.53;22.92;;;;;;;0.92;89.24;100657.22;5006733;28;20038;-63
2022/03/30 03:57:00;;;;;;;68.13;22.70;;;;;;;0.93;89.35;100659.81;5012957;28;20045;-64
2022/03/30 03:59:25;;;;;;;75.90;24.50;;;;;;;1.03;89.15;100649.91;5011733;28;20194;-63
2022/03/30 04:01:51;;;;;;;75.70;23.88;;;;;;;0.97;89.17;100657.97;5021181;28;20137;-63
2022/03/30 04:04:18;;;;;;;72.82;23.85;;;;;;;1.03;89.28;100657.78;5001823;28;20133;-63
2022/03/30 04:06:43;;;;;;;71.53;25.02;;;;;;;1.04;89.33;100660.38;5007755;28;20037;-63
2022/03/30 04:09:08;;;;;;;69.93;23.67;;;;;;;1.16;88.94;100659.19;5011194;28;20048;-63
2022/03/30 04:11:34;;;;;;;68.32;22.85;;;;;;;1.13;88.72;100658.41;4997184;28;20132;-63
2022/03/30 04:14:00;;;;;;;88.18;24.55;;;;;;;1.12;88.65;100654.94;5003925;28;20422;-63
2022/03/30 04:16:25;;;;;;;80.55;23.83;;;;;;;1.06;88.11;100664.75;5016253;28;20030;-63
2022/03/30 04:18:51;;;;;;;76.95;23.25;;;;;;;0.99;87.80;100664.03;5007186;28;20068;-63
2022/03/30 04:21:16;;;;;;;79.90;25.35;;;;;;;0.94;88.24;100661.53;4989665;28;20045;-63
2022/03/30 04:23:41;;;;;;;69.35;23.98;;;;;;;0.97;88.37;100666.69;5013749;28;20076;-63
2022/03/30 04:26:09;;;;;;;65.57;24.15;;;;;;;0.79;88.29;100667.19;5023026;28;20038;-63
2022/03/30 04:28:40;;;;;;;72.90;23.10;;;;;;;0.72;88.42;100668.25;5006744;28;20030;-63
2022/03/30 04:31:09;;;;;;;77.28;22.52;;;;;;;0.80;88.42;100655.78;5025249;28;20048;-63
2022/03/30 04:33:35;;;;;;;62.22;21.65;;;;;;;0.72;88.72;100652.50;5025311;28;20489;-63
2022/03/30 04:36:01;;;;;;;70.18;23.33;;;;;;;0.77;88.85;100651.47;5008294;28;20041;-65
2022/03/30 04:38:26;;;;;;;78.35;24.10;;;;;;;0.72;88.78;100650.75;4983862;28;20133;-63
2022/03/30 04:40:52;;;;;;;63.20;22.92;;;;;;;0.80;88.58;100647.91;4991036;28;20042;-63
2022/03/30 04:43:17;;;;;;;68.75;21.95;;;;;;;0.76;88.16;100635.78;4981960;28;20371;-63
2022/03/30 04:45:42;;;;;;;66.88;24.27;;;;;;;0.80;88.00;100640.03;5014094;28;20449;-63
2022/03/30 04:48:08;;;;;;;70.93;23.38;;;;;;;0.74;87.52;100635.81;5020641;28;20044;-64
2022/03/30 04:50:33;;;;;;;71.07;23.42;;;;;;;0.66;88.67;100631.69;5008964;28;20045;-63
2022/03/30 04:52:59;;;;;;;73.03;24.92;;;;;;;0.62;88.96;100637.91;4981813;28;20044;-63
2022/03/30 04:55:24;;;;;;;75.03;23.75;;;;;;;0.64;88.59;100639.56;4985948;28;20108;-63
2022/03/30 04:57:49;;;;;;;70.35;23.20;;;;;;;0.53;89.80;100633.75;5004721;28;20038;-63
2022/03/30 05:00:15;;;;;;;66.78;24.58;;;;;;;0.56;89.31;100632.81;5007179;28;20042;-63
2022/03/30 05:02:41;;;;;;;68.15;23.77;;;;;;;0.61;89.33;100638.81;4988967;28;20149;-65
2022/03/30 05:05:10;;;;;;;82.53;26.40;;;;;;;0.55;89.34;100628.44;5003418;28;20041;-63
2022/03/30 05:07:36;;;;;;;70.75;22.85;;;;;;;0.59;89.24;100628.34;5001719;28;20052;-63
2022/03/30 05:10:05;;;;;;;75.82;23.35;;;;;;;0.67;88.23;100633.41;5017798;28;20049;-63
2022/03/30 05:12:31;;;;;;;71.35;24.23;;;;;;;0.47;87.26;100623.41;5003637;28;20037;-63
2022/03/30 05:14:56;;;;;;;68.15;21.58;;;;;;;0.41;88.33;100626.19;4976523;28;20058;-63
2022/03/30 05:17:22;;;;;;;64.18;22.42;;;;;;;0.33;88.54;100622.91;5010765;28;20614;-63
2022/03/30 05:19:48;;;;;;;60.40;21.75;;;;;;;0.30;88.00;100612.47;5001646;28;20034;-63
2022/03/30 05:22:14;;;;;;;63.08;23.13;;;;;;;0.31;88.93;100617.69;4986568;28;20664;-63
2022/03/30 05:24:39;;;;;;;67.95;23.17;;;;;;;0.38;88.50;100606.16;5001214;28;20040;-63
2022/03/30 05:27:05;;;;;;;63.63;23.10;;;;;;;0.57;87.93;100603.06;5000312;28;20057;-63
2022/03/30 05:29:31;;;;;;;91.40;25.00;;;;;;;0.58;88.28;100608.25;5001845;28;20037;-63
2022/03/30 05:31:57;;;;;;;66.03;23.33;;;;;;;0.67;86.79;100602.78;4987150;28;20207;-63
2022/03/30 05:34:24;;;;;;;63.60;22.88;;;;;;;0.60;86.74;100602.97;5003260;28;20124;-63
2022/03/30 05:36:50;;;;;;;70.07;24.27;;;;;;;0.71;87.10;100604.41;4988716;28;20049;-63
2022/03/30 05:39:15;;;;;;;72.85;24.50;;;;;;;0.70;87.48;100601.81;4995952;28;20045;-63
2022/03/30 05:41:41;;;;;;;71.90;24.48;;;;;;;0.64;85.61;100610.72;5001561;28;20034;-63
2022/03/30 05:44:06;;;;;;;63.08;24.80;;;;;;;0.39;84.43;100602.63;5006266;28;20100;-63
2022/03/30 05:46:32;;;;;;;68.38;22.80;;;;;;;0.42;84.26;100609.56;5002742;28;20402;-63
2022/03/30 05:48:57;;;;;;;58.33;20.58;;;;;;;0.55;84.48;100599.59;5002104;28;20053;-63
2022/03/30 05:51:23;;;;;;;66.97;22.05;;;;;;;0.74;84.25;100600.84;5001576;28;20054;-64
2022/03/30 05:53:49;;;;;;;54.90;21.58;;;;;;;0.88;83.86;100596.06;4998022;28;20035;-65
2022/03/30 05:56:15;;;;;;;78.30;24.17;;;;;;;1.04;84.69;100597.38;5001786;28;20552;-65
2022/03/30 05:58:40;;;;;;;69.75;22.10;;;;;;;1.33;84.85;100600.06;4997393;28;20050;-64
2022/03/30 06:01:06;;;;;;;61.25;23.00;;;;;;;1.44;84.53;100598.84;4999704;28;20120;-64
2022/03/30 06:03:37;;;;;;;68.22;22.48;;;;;;;1.68;84.24;100599.00;5000535;28;20080;-62
2022/03/30 06:06:04;;;;;;;72.18;23.70;;;;;;;1.77;84.20;100602.22;5000310;28;20045;-65
2022/03/30 06:08:29;;;;;;;71.25;24.33;;;;;;;1.99;82.88;100605.03;5016443;28;20042;-64
2022/03/30 06:10:54;;;;;;;58.10;21.85;;;;;;;1.99;81.65;100606.78;5009562;28;20504;-64
2022/03/30 06:13:20;;;;;;;56.78;19.98;;;;;;;1.70;81.69;100621.69;4991657;28;20038;-65
2022/03/30 06:15:45;;;;;;;51.33;20.42;;;;;;;1.76;81.39;100629.41;5015946;28;20198;-65
2022/03/30 06:18:13;;;;;;;47.05;20.40;;;;;;;1.88;80.67;100622.06;5004516;28;20064;-64
2022/03/30 06:20:39;;;;;;;60.35;20.48;;;;;;;1.88;81.51;100622.06;5015414;28;20046;-65
2022/03/30 06:23:05;;;;;;;58.65;21.67;;;;;;;2.03;82.21;100632.09;4983904;28;20045;-64
2022/03/30 06:25:31;;;;;;;62.53;20.70;;;;;;;2.10;81.35;100623.09;4984556;28;20069;-64
2022/03/30 06:27:58;;;;;;;47.40;20.30;;;;;;;2.57;81.23;100620.66;5005357;28;20138;-65
2022/03/30 06:30:25;;;;;;;57.92;21.05;;;;;;;2.66;81.92;100623.00;5007692;28;20053;-67
2022/03/30 06:32:51;;;;;;;57.60;22.02;;;;;;;2.79;82.01;100629.53;5017489;28;20065;-65
2022/03/30 06:35:18;;;;;;;62.75;21.63;;;;;;;2.81;82.71;100622.47;5013783;28;20103;-65
2022/03/30 06:37:44;;;;;;;63.80;21.58;;;;;;;2.92;82.18;100629.97;5004280;28;20046;-66
2022/03/30 06:40:11;;;;;;;59.65;21.33;;;;;;;3.05;81.71;100627.75;5006058;28;20076;-64
2022/03/30 06:42:37;;;;;;;73.38;21.90;;;;;;;3.20;81.49;100624.56;5018021;28;20066;-65
2022/03/30 06:45:03;;;;;;;53.95;20.70;;;;;;;3.60;80.61;100636.25;5003518;28;20077;-65
2022/03/30 06:47:29;;;;;;;55.22;22.75;;;;;;;3.74;79.99;100627.84;4999156;28;20786;-65
2022/03/30 06:49:55;;;;;;;60.58;22.45;;;;;;;4.10;79.02;100621.09;5019985;28;20041;-64
2022/03/30 06:52:21;;;;;;;57.50;21.45;;;;;;;4.29;77.96;100623.84;5000733;28;20043;-65
2022/03/30 06:54:46;;;;;;;53.75;20.77;;;;;;;4.56;77.83;100632.41;5010510;28;20026;-64
2022/03/30 06:57:11;;;;;;;50.47;20.27;;;;;;;4.32;78.35;100626.38;4981954;28;20038;-64
2022/03/30 06:59:37;;;;;;;58.63;22.48;;;;;;;4.61;78.81;100624.28;5003934;28;20037;-66
2022/03/30 07:02:03;;;;;;;48.63;20.30;;;;;;;4.24;78.71;100619.69;5020063;28;20041;-65
2022/03/30 07:04:29;;;;;;;63.88;21.80;;;;;;;4.43;79.61;100619.81;5002320;28;20054;-65
2022/03/30 07:12:23;;;;;;;51.45;20.00;;;;;;;4.54;79.75;100623.69;4971676;28;20041;-62
2022/03/30 07:14:49;;;;;;;52.10;19.65;;;;;;;4.44;79.69;100619.72;5021905;28;20056;-65
2022/03/30 07:17:14;;;;;;;53.33;20.25;;;;;;;4.48;78.90;100613.41;5002312;28;20128;-62
2022/03/30 07:19:40;;;;;;;50.70;18.63;;;;;;;4.54;79.34;100617.56;5020161;28;20041;-65
2022/03/30 07:22:06;;;;;;;54.05;20.98;;;;;;;4.67;79.47;100610.84;5003504;28;20034;-65
2022/03/30 07:24:32;;;;;;;44.00;20.58;;;;;;;4.84;78.16;100613.59;5005067;28;20045;-64
2022/03/30 07:26:57;;;;;;;52.67;20.23;;;;;;;4.66;79.11;100620.53;4993588;28;20120;-65
2022/03/30 07:29:22;;;;;;;55.17;20.67;;;;;;;4.62;79.49;100612.81;4982383;28;20049;-64
2022/03/30 07:31:48;;;;;;;45.53;18.00;;;;;;;4.67;78.93;100610.84;4999906;28;20037;-64
2022/03/30 07:34:14;;;;;;;49.42;20.38;;;;;;;4.66;78.15;100615.25;5015716;28;20448;-64
2022/03/30 07:36:40;;;;;;;49.03;19.27;;;;;;;4.66;77.99;100607.31;4981546;28;20046;-63
2022/03/30 07:39:05;;;;;;;49.20;20.52;;;;;;;4.86;78.88;100605.59;5009254;28;20123;-62
2022/03/30 07:41:31;;;;;;;54.25;19.67;;;;;;;4.89;78.76;100608.13;5018815;28;20561;-65
2022/03/30 07:43:56;;;;;;;54.55;21.17;;;;;;;5.05;78.22;100603.03;4981318;28;20055;-64
2022/03/30 07:46:22;;;;;;;53.42;19.33;;;;;;;5.17;77.84;100608.63;4979727;28;20132;-63
2022/03/30 07:48:47;;;;;;;47.03;19.40;;;;;;;5.59;77.56;100599.66;4985743;28;20560;-64
2022/03/30 07:51:12;;;;;;;50.60;20.45;;;;;;;5.57;77.10;100603.28;4987083;28;20046;-64
2022/03/30 07:53:38;;;;;;;46.25;20.45;;;;;;;5.51;76.48;100598.28;4977849;28;20042;-64
2022/03/30 07:56:04;;;;;;;51.13;21.45;;;;;;;5.58;76.61;100594.44;4967815;28;20039;-64
2022/03/30 07:58:29;;;;;;;54.45;20.25;;;;;;;5.38;77.14;100600.66;4984522;28;20037;-64
2022/03/30 08:00:55;;;;;;;55.15;22.40;;;;;;;5.76;75.57;100600.66;4992241;28;20780;-64
2022/03/30 08:03:20;;;;;;;46.33;18.80;;;;;;;6.04;75.89;100594.94;4991492;28;20088;-64
2022/03/30 08:05:46;;;;;;;66.10;19.58;;;;;;;6.05;74.26;100588.69;4983942;28;20454;-64
2022/03/30 08:08:11;;;;;;;43.65;18.88;;;;;;;6.17;75.62;100594.22;4982808;28;20046;-64
2022/03/30 08:10:37;;;;;;;44.38;18.33;;;;;;;6.06;73.61;100593.91;4995604;28;20057;-64
2022/03/30 08:13:04;;;;;;;43.30;18.17;;;;;;;6.51;73.89;100597.00;4990052;28;20045;-64
2022/03/30 08:15:30;;;;;;;43.53;17.98;;;;;;;6.57;72.49;100596.69;4987996;28;20091;-63
2022/03/30 08:17:55;;;;;;;55.95;20.67;;;;;;;6.91;72.65;100598.47;4996302;28;20038;-63
2022/03/30 08:23:10;;;;;;;49.78;18.10;;;;;;;7.30;70.94;100595.50;4979074;28;20104;-63
2022/03/30 08:25:36;;;;;;;41.42;16.92;;;;;;;7.05;70.20;100600.41;4986377;28;20548;-63
2022/03/30 08:28:03;;;;;;;39.65;16.85;;;;;;;7.72;71.06;100594.94;4979198;28;20089;-63
2022/03/30 08:30:29;;;;;;;41.30;17.55;;;;;;;7.37;72.17;100601.31;4995111;28;20593;-63
2022/03/30 08:32:54;;;;;;;46.95;17.83;;;;;;;6.94;71.95;100593.88;4987649;28;20073;-63
2022/03/30 08:35:21;;;;;;;35.78;17.08;;;;;;;7.44;72.00;100592.13;4988454;28;20770;-63
2022/03/30 08:37:47;;;;;;;43.90;17.75;;;;;;;7.21;70.43;100591.53;4993620;28;20150;-63
2022/03/30 08:40:13;;;;;;;39.97;16.90;;;;;;;7.61;72.19;100591.19;4980654;28;20050;-63
2022/03/30 08:42:40;;;;;;;44.28;17.38;;;;;;;7.12;71.26;100594.69;4989882;28;20489;-64
2022/03/30 08:45:07;;;;;;;41.67;17.02;;;;;;;6.89;71.55;100595.91;5019718;28;20506;-63
2022/03/30 08:47:34;;;;;;;45.20;18.50;;;;;;;7.09;70.79;100583.41;5019547;28;20037;-63
2022/03/30 08:49:59;;;;;;;44.97;16.27;;;;;;;7.39;72.90;100576.44;5002791;28;20721;-63
2022/03/30 08:52:24;;;;;;;36.65;16.08;;;;;;;7.90;70.26;100581.59;4999381;28;20049;-63
2022/03/30 08:54:51;;;;;;;36.13;16.10;;;;;;;7.69;70.18;100581.00;5005173;28;20037;-63
2022/03/30 08:57:16;;;;;;;39.40;15.57;;;;;;;7.41;70.07;100577.22;4998104;28;20034;-63
2022/03/30 09:00:05;;;;;;;27.98;12.70;;;;;;;7.51;69.24;100582.88;5006075;28;20084;-63
2022/03/30 09:02:38;;;;;;;36.03;13.27;;;;;;;7.44;69.64;100574.41;4987287;28;20044;-65
2022/03/30 09:05:25;;;;;;;35.55;13.15;;;;;;;7.34;69.96;100569.69;4990236;28;20457;-64
2022/03/30 09:07:54;;;;;;;27.23;12.52;;;;;;;7.86;67.96;100572.94;4996892;28;20160;-65
2022/03/30 09:10:28;;;;;;;36.15;12.77;;;;;;;8.00;67.93;100575.69;5017936;28;20065;-63
2022/03/30 09:12:55;;;;;;;28.73;12.52;;;;;;;8.04;68.05;100574.56;5012164;28;20037;-65
2022/03/30 09:15:22;;;;;;;24.35;10.63;;;;;;;8.03;68.90;100572.88;4995972;28;20038;-62
2022/03/30 09:17:49;;;;;;;28.25;10.65;;;;;;;8.41;68.53;100563.63;4989423;28;20133;-63
2022/03/30 09:20:20;;;;;;;25.85;11.68;;;;;;;8.14;67.12;100558.09;5019011;28;20065;-62
2022/03/30 09:22:51;;;;;;;22.88;10.15;;;;;;;8.10;67.57;100564.53;5007645;28;20038;-63
2022/03/30 09:25:17;;;;;;;23.35;11.55;;;;;;;8.13;66.45;100567.84;5023071;28;20757;-65
2022/03/30 09:27:45;;;;;;;25.10;11.05;;;;;;;8.18;66.64;100562.28;5009106;28;20038;-63
2022/03/30 09:30:17;;;;;;;20.58;10.70;;;;;;;7.71;66.63;100560.53;5019787;28;20080;-65
2022/03/30 09:32:45;;;;;;;26.17;11.98;;;;;;;8.00;66.85;100558.91;5009790;28;20195;-63
2022/03/30 09:35:38;;;;;;;26.50;12.48;;;;;;;8.13;66.31;100557.22;5013087;28;20192;-65
2022/03/30 09:38:13;;;;;;;32.75;12.20;;;;;;;8.55;66.23;100550.38;5019480;28;20491;-63
2022/03/30 09:40:52;;;;;;;27.42;12.55;;;;;;;8.24;67.12;100557.47;4999620;28;20508;-65
2022/03/30 09:43:29;;;;;;;34.70;13.27;;;;;;;8.93;64.86;100560.50;4996465;28;20064;-62
2022/03/30 09:46:09;;;;;;;27.38;11.60;;;;;;;8.41;64.53;100556.50;5005014;28;20334;-63
2022/03/30 09:48:43;;;;;;;31.60;13.25;;;;;;;8.44;64.74;100545.72;4975344;28;20076;-62
2022/03/30 09:51:09;;;;;;;31.88;13.75;;;;;;;8.31;65.27;100553.50;5011146;28;20045;-62
2022/03/30 09:53:36;;;;;;;34.13;13.18;;;;;;;8.57;66.71;100549.34;5016174;28;20490;-63
2022/03/30 09:56:04;;;;;;;27.65;12.35;;;;;;;8.85;63.39;100545.03;5005309;28;20061;-62
2022/03/30 09:58:35;;;;;;;31.77;13.35;;;;;;;8.67;65.39;100539.00;5001854;28;20033;-62
2022/03/30 10:01:19;;;;;;;30.73;11.63;;;;;;;9.10;62.59;100539.06;5010695;28;20045;-63
2022/03/30 10:03:48;;;;;;;25.45;13.32;;;;;;;9.30;63.24;100538.66;5021028;28;20134;-62
2022/03/30 10:06:16;;;;;;;24.13;10.98;;;;;;;9.29;62.93;100530.78;5003200;28;20116;-62
2022/03/30 10:08:44;;;;;;;24.30;11.68;;;;;;;9.25;61.90;100523.94;5008540;28;20041;-62
2022/03/30 10:11:12;;;;;;;27.42;12.00;;;;;;;9.97;60.78;100530.78;4994292;28;20042;-63
2022/03/30 10:13:39;;;;;;;27.60;11.60;;;;;;;9.77;59.38;100518.78;5015812;28;20785;-65
2022/03/30 10:16:06;;;;;;;28.27;11.27;;;;;;;9.64;60.53;100525.00;5003567;28;20482;-65
2022/03/30 10:18:32;;;;;;;27.02;11.02;;;;;;;9.93;61.27;100534.59;5017080;28;20376;-62
2022/03/30 10:21:31;;;;;;;25.38;13.05;;;;;;;10.33;62.32;100526.66;5001838;28;20040;-64
2022/03/30 10:24:15;;;;;;;22.42;10.93;;;;;;;10.83;59.63;100527.69;5000542;28;20811;-62
2022/03/30 10:27:02;;;;;;;25.05;10.98;;;;;;;11.07;58.21;100525.97;5001154;28;20046;-63
2022/03/30 10:29:30;;;;;;;23.23;10.70;;;;;;;10.45;56.63;100523.19;5001789;28;20038;-62
2022/03/30 10:32:22;;;;;;;23.00;11.20;;;;;;;10.68;59.62;100516.25;5016953;28;20054;-65
2022/03/30 10:34:50;;;;;;;18.45;10.50;;;;;;;10.10;60.23;100517.53;5019681;28;20045;-65
2022/03/30 10:37:34;;;;;;;19.35;10.05;;;;;;;9.98;59.49;100511.19;5007425;28;20125;-63
2022/03/30 10:40:08;;;;;;;26.13;11.57;;;;;;;10.17;59.79;100508.16;5016457;28;20521;-62
2022/03/30 10:42:46;;;;;;;21.17;10.15;;;;;;;9.71;58.78;100511.19;4997459;28;20853;-65
2022/03/30 10:45:25;;;;;;;17.88;9.95;;;;;;;10.23;57.04;100509.56;5000917;28;20041;-63
2022/03/30 10:48:10;;;;;;;18.33;9.30;;;;;;;10.09;58.04;100499.81;5005655;28;20443;-63
2022/03/30 10:50:48;;;;;;;22.52;9.20;;;;;;;10.13;56.10;100496.84;4998415;28;20132;-63
2022/03/30 10:53:32;;;;;;;22.25;9.68;;;;;;;10.76;55.45;100500.59;5002144;28;20080;-64
2022/03/30 10:56:09;;;;;;;23.27;9.95;;;;;;;11.37;54.35;100495.38;5003357;28;20042;-63
2022/03/30 10:59:00;;;;;;;27.58;10.30;;;;;;;11.47;53.58;100487.56;4999239;28;20827;-63
2022/03/30 11:01:31;;;;;;;21.98;10.30;;;;;;;10.88;55.75;100494.38;4998460;28;20077;-64
2022/03/30 11:04:02;;;;;;;24.23;10.70;;;;;;;10.93;55.90;100491.38;5015578;28;20103;-63
2022/03/30 11:06:33;;;;;;;21.63;10.02;;;;;;;11.18;56.19;100485.16;4979086;28;20057;-63
2022/03/30 11:09:01;;;;;;;25.38;11.23;;;;;;;11.00;57.45;100486.50;4978055;28;20041;-65
2022/03/30 11:11:39;;;;;;;21.50;9.75;;;;;;;10.55;58.96;100489.59;5006723;28;20061;-63
2022/03/30 11:14:23;;;;;;;23.23;10.30;;;;;;;10.07;59.11;100483.09;4996926;28;20140;-63
2022/03/30 11:16:50;;;;;;;23.73;10.68;;;;;;;10.74;55.30;100483.81;4999799;28;20046;-61
2022/03/30 11:19:16;;;;;;;21.95;9.82;;;;;;;10.30;57.69;100487.75;5010582;28;20414;-64
2022/03/30 11:22:12;;;;;;;20.10;9.10;;;;;;;10.04;57.63;100477.94;5019998;28;20048;-63
2022/03/30 11:24:41;;;;;;;17.55;8.88;;;;;;;10.53;57.05;100475.50;5011012;28;20057;-64
2022/03/30 11:27:07;;;;;;;18.40;9.70;;;;;;;10.28;59.57;100472.81;4991565;28;20068;-64
2022/03/30 11:29:47;;;;;;;15.15;8.57;;;;;;;9.99;57.56;100480.94;5019943;28;20523;-64